Accueil
METAR-TAF:

METAR-TAF

Aéroports :

Aérodrome de Forlì

Forlì, Italie

latitude: 44-12N, longitude: 012-04E, altitude: 27 m

Observation

Le bulletin a été fait il y a 46 minutes, à 08:50 UTC
Vent 1 kt de direction variable
Température 17°C
Humidité 88%
Pression 1020 hPa
Visibilité: 3000 m
Quelques nuages à une hauteur de 500 ft
Nuages épars à une hauteur de 1000 ft
Nuages fragmentés à une hauteur de 2500 ft
brume

METAR: LIPK 160850Z VRB01KT 3000 BR FEW005 SCT010 BKN025 17/15 Q1020

Heure: 11:36 (09:36 UTC)


TAF: absent

Observations et prévisions météorologiques de plus de 4000 aéroports (messages METAR et TAF).

Les stations disponibles sont représentées par des disques jaunes et rouges sur la carte.

Passer la souris dessus pour voir le nom de la station.

Cliquer dessus pour voir les observations et prévisions météorologiques.

Pour changer de carte: cliquez sur les boutons verts avec une croix noire pour zoomer, sur le bouton vert avec un tiret pour effectuer un zoom arrière, ou sur les flèches vertes pour les cartes adjacentes.


METAR-TAF: